createdAt,value
2022-11-21T00:01:02.265Z,5.47
2022-11-21T00:03:29.446Z,2.38
2022-11-21T00:05:56.638Z,0.57
2022-11-21T00:08:24.228Z,0.60
2022-11-21T00:10:51.541Z,0.60
2022-11-21T00:13:20.821Z,0.50
2022-11-21T00:15:48.425Z,0.50
2022-11-21T00:18:16.361Z,0.82
2022-11-21T00:20:44.898Z,0.50
2022-11-21T00:23:12.409Z,0.50
2022-11-21T00:25:40.027Z,0.50
2022-11-21T00:28:07.113Z,0.50
2022-11-21T00:30:34.220Z,0.45
2022-11-21T00:33:01.327Z,0.50
2022-11-21T00:35:28.485Z,0.45
2022-11-21T00:37:55.705Z,0.30
2022-11-21T00:40:22.860Z,0.40
2022-11-21T00:42:49.924Z,0.30
2022-11-21T00:45:22.719Z,0.40
2022-11-21T00:47:51.375Z,0.32
2022-11-21T00:50:18.562Z,0.40
2022-11-21T00:52:45.877Z,0.40
2022-11-21T00:55:13.055Z,0.40
2022-11-21T00:57:40.353Z,0.40
2022-11-21T01:00:08.137Z,0.50
2022-11-21T01:02:35.240Z,0.50
2022-11-21T01:05:02.638Z,0.40
2022-11-21T01:07:29.900Z,0.50
2022-11-21T01:09:56.937Z,0.40
2022-11-21T01:12:24.349Z,0.40
2022-11-21T01:14:51.497Z,0.43
2022-11-21T01:17:18.820Z,0.40
2022-11-21T01:19:46.380Z,0.50
2022-11-21T01:22:13.573Z,0.60
2022-11-21T01:24:40.785Z,0.70
2022-11-21T01:27:07.929Z,0.50
2022-11-21T01:29:35.005Z,0.60
2022-11-21T01:32:02.185Z,0.40
2022-11-21T01:34:29.908Z,0.30
2022-11-21T01:36:57.087Z,0.40
2022-11-21T01:39:24.445Z,0.35
2022-11-21T01:41:51.509Z,0.40
2022-11-21T01:44:21.852Z,0.50
2022-11-21T01:46:50.572Z,0.40
2022-11-21T01:49:19.257Z,0.50
2022-11-21T01:52:11.094Z,0.50
2022-11-21T01:54:52.949Z,0.50
2022-11-21T01:57:28.707Z,0.43
2022-11-21T02:00:11.421Z,0.55
2022-11-21T02:02:42.693Z,0.50
2022-11-21T02:05:14.748Z,0.60
2022-11-21T02:07:44.592Z,0.40
2022-11-21T02:10:13.283Z,0.52
2022-11-21T02:12:53.118Z,0.50
2022-11-21T02:15:23.268Z,0.60
2022-11-21T02:17:50.740Z,0.40
2022-11-21T02:20:21.214Z,0.40
2022-11-21T02:22:51.212Z,0.50
2022-11-21T02:25:19.913Z,0.40
2022-11-21T02:27:50.529Z,0.40
2022-11-21T02:30:18.769Z,0.47
2022-11-21T02:32:49.939Z,0.55
2022-11-21T02:35:18.888Z,0.60
2022-11-21T02:37:48.428Z,0.50
2022-11-21T02:40:21.056Z,0.65
2022-11-21T02:43:09.439Z,0.43
2022-11-21T02:45:40.943Z,0.50
2022-11-21T02:48:08.760Z,0.70
2022-11-21T02:50:38.086Z,0.60
2022-11-21T02:53:07.921Z,0.70
2022-11-21T02:55:35.512Z,0.50
2022-11-21T02:58:05.269Z,0.45
2022-11-21T03:00:34.321Z,0.60
2022-11-21T03:03:01.540Z,0.60
2022-11-21T03:05:28.927Z,0.60
2022-11-21T03:07:56.264Z,0.57
2022-11-21T03:10:23.670Z,0.70
2022-11-21T03:12:50.668Z,0.52
2022-11-21T03:15:18.004Z,0.60
2022-11-21T03:17:49.801Z,0.70
2022-11-21T03:20:16.981Z,0.50
2022-11-21T03:22:44.010Z,0.73
2022-11-21T03:25:11.719Z,0.63
2022-11-21T03:27:38.729Z,0.80
2022-11-21T03:30:06.623Z,0.90
2022-11-21T03:32:33.748Z,0.60
2022-11-21T03:35:00.924Z,0.57
2022-11-21T03:37:28.107Z,0.70
2022-11-21T03:39:55.371Z,0.50
2022-11-21T03:42:22.696Z,0.60
2022-11-21T03:44:49.758Z,0.60
2022-11-21T03:47:17.573Z,0.77
2022-11-21T03:49:44.620Z,0.60
2022-11-21T03:52:11.719Z,0.70
2022-11-21T03:54:38.858Z,0.70
2022-11-21T03:57:06.025Z,0.70
2022-11-21T03:59:33.564Z,0.80
2022-11-21T04:02:00.691Z,0.60
2022-11-21T04:04:28.059Z,0.77
2022-11-21T04:06:55.402Z,0.80
2022-11-21T04:09:22.722Z,0.90
2022-11-21T04:11:49.926Z,1.00
2022-11-21T04:14:17.112Z,0.70
2022-11-21T04:16:44.329Z,0.70
2022-11-21T04:19:11.375Z,0.80
2022-11-21T04:21:38.504Z,0.90
2022-11-21T04:24:06.101Z,2.75
2022-11-21T04:26:33.264Z,1.38
2022-11-21T04:29:00.729Z,54.38
2022-11-21T04:31:27.919Z,48.00
2022-11-21T04:33:55.138Z,34.80
2022-11-21T04:36:22.299Z,10.25
2022-11-21T04:38:49.428Z,6.80
2022-11-21T04:41:16.988Z,2.50
2022-11-21T04:43:44.096Z,1.58
2022-11-21T04:46:11.284Z,1.13
2022-11-21T04:48:38.510Z,1.10
2022-11-21T04:51:05.644Z,0.90
2022-11-21T04:53:32.860Z,1.02
2022-11-21T04:56:03.145Z,1.00
2022-11-21T04:58:30.225Z,1.30
2022-11-21T05:00:57.312Z,0.95
2022-11-21T05:03:24.481Z,1.00
2022-11-21T05:05:51.573Z,1.08
2022-11-21T05:08:19.102Z,1.00
2022-11-21T05:11:04.564Z,1.30
2022-11-21T05:13:31.910Z,1.23
2022-11-21T05:15:58.969Z,1.30
2022-11-21T05:18:26.156Z,1.15
2022-11-21T05:20:53.256Z,1.17
2022-11-21T05:23:20.373Z,0.90
2022-11-21T05:25:47.464Z,1.00
2022-11-21T05:28:14.639Z,1.20
2022-11-21T05:30:41.604Z,1.00
2022-11-21T05:33:08.745Z,2.15
2022-11-21T05:35:41.650Z,1.80
2022-11-21T05:38:10.659Z,1.40
2022-11-21T05:40:37.768Z,1.20
2022-11-21T05:43:23.820Z,1.00
2022-11-21T05:45:51.366Z,1.00
2022-11-21T05:48:18.666Z,1.20
2022-11-21T05:50:49.678Z,1.00
2022-11-21T05:53:17.720Z,1.00
2022-11-21T05:55:45.362Z,2.17
2022-11-21T05:58:13.242Z,1.00
2022-11-21T06:00:40.518Z,3.28
2022-11-21T06:03:28.382Z,1.35
2022-11-21T06:06:06.929Z,11.25
2022-11-21T06:08:36.893Z,1.95
2022-11-21T06:11:05.256Z,6.57
2022-11-21T06:13:33.997Z,1.25
2022-11-21T06:16:03.047Z,1.42
2022-11-21T06:18:33.090Z,1.70
2022-11-21T06:21:07.857Z,1.60
2022-11-21T06:23:36.073Z,1.40
2022-11-21T06:26:05.874Z,1.23
2022-11-21T06:28:38.320Z,3.65
2022-11-21T06:31:14.128Z,1.30
2022-11-21T06:33:42.512Z,1.30
2022-11-21T06:36:15.441Z,1.05
2022-11-21T06:38:44.115Z,1.10
2022-11-21T06:41:20.069Z,1.20
2022-11-21T06:43:47.757Z,1.13
2022-11-21T06:46:15.741Z,1.42
2022-11-21T06:48:44.015Z,2.30
2022-11-21T06:51:21.563Z,1.13
2022-11-21T06:53:56.017Z,1.30
2022-11-21T06:56:28.065Z,1.50
2022-11-21T06:58:55.995Z,1.15
2022-11-21T07:01:23.982Z,1.13
2022-11-21T07:03:52.081Z,1.10
2022-11-21T07:06:19.550Z,1.45
2022-11-21T07:08:52.446Z,1.23
2022-11-21T07:11:27.502Z,1.20
2022-11-21T07:13:54.860Z,1.35
2022-11-21T07:16:22.062Z,1.73
2022-11-21T07:18:49.229Z,1.23
2022-11-21T07:21:16.393Z,1.27
2022-11-21T07:23:43.433Z,2.58
2022-11-21T07:26:11.208Z,1.30
2022-11-21T07:28:38.598Z,1.80
2022-11-21T07:31:11.680Z,1.38
2022-11-21T07:33:40.359Z,1.75
2022-11-21T07:36:08.207Z,1.58
2022-11-21T07:38:35.513Z,1.10
2022-11-21T07:41:02.734Z,1.20
2022-11-21T07:43:29.881Z,2.20
2022-11-21T07:45:57.132Z,1.38
2022-11-21T07:48:26.151Z,1.60
2022-11-21T07:50:53.298Z,1.02
2022-11-21T07:53:20.477Z,1.80
2022-11-21T07:55:47.649Z,1.88
2022-11-21T07:58:16.645Z,1.20
2022-11-21T08:00:43.938Z,1.02
2022-11-21T08:03:12.765Z,1.20
2022-11-21T08:05:44.437Z,1.25
2022-11-21T08:08:13.284Z,1.23
2022-11-21T08:10:42.784Z,1.50
2022-11-21T08:13:10.280Z,1.40
2022-11-21T08:15:37.368Z,2.10
2022-11-21T08:18:14.031Z,1.80
2022-11-21T08:20:42.117Z,1.90
2022-11-21T08:23:10.418Z,2.42
2022-11-21T08:25:39.824Z,1.60
2022-11-21T08:28:08.835Z,2.25
2022-11-21T08:30:37.091Z,1.95
2022-11-21T08:33:05.301Z,1.88
2022-11-21T08:35:32.369Z,2.00
2022-11-21T08:38:02.515Z,1.50
2022-11-21T08:40:31.554Z,1.40
2022-11-21T08:43:08.852Z,1.30
2022-11-21T08:45:37.737Z,1.50
2022-11-21T08:48:09.299Z,1.27
2022-11-21T08:50:36.441Z,1.50
2022-11-21T08:53:04.252Z,1.83
2022-11-21T08:55:31.889Z,1.30
2022-11-21T08:58:00.193Z,1.70
2022-11-21T09:00:27.467Z,1.50
2022-11-21T09:02:54.653Z,2.20
2022-11-21T09:05:22.124Z,2.42
2022-11-21T09:07:55.590Z,1.70
2022-11-21T09:10:22.748Z,2.00
2022-11-21T09:12:49.834Z,1.52
2022-11-21T09:15:37.385Z,1.52
2022-11-21T09:18:05.295Z,1.75
2022-11-21T09:20:34.715Z,1.10
2022-11-21T09:23:06.274Z,2.25
2022-11-21T09:25:34.367Z,2.00
2022-11-21T09:28:03.359Z,3.28
2022-11-21T09:30:30.890Z,2.22
2022-11-21T09:33:02.525Z,6.97
2022-11-21T09:35:30.195Z,1.60
2022-11-21T09:37:58.129Z,8.75
2022-11-21T09:40:25.613Z,4.32
2022-11-21T09:43:18.741Z,2.13
2022-11-21T09:45:52.533Z,4.32
2022-11-21T09:48:39.871Z,2.20
2022-11-21T09:51:13.377Z,3.70
2022-11-21T09:54:03.478Z,11.30
2022-11-21T09:56:35.615Z,14.30
2022-11-21T09:59:06.028Z,13.00
2022-11-21T10:01:33.306Z,4.63
2022-11-21T10:04:03.730Z,2.13
2022-11-21T10:06:36.588Z,2.80
2022-11-21T10:09:24.305Z,3.30
2022-11-21T10:12:38.849Z,4.32
2022-11-21T10:15:34.206Z,3.03
2022-11-21T10:18:24.628Z,2.53
2022-11-21T10:21:09.965Z,2.65
2022-11-21T10:23:37.290Z,2.58
2022-11-21T10:26:38.605Z,2.70
2022-11-21T10:29:18.618Z,3.45
2022-11-21T10:31:47.253Z,1.98
2022-11-21T10:34:19.983Z,3.40
2022-11-21T10:36:55.676Z,2.40
2022-11-21T10:39:40.408Z,1.65
2022-11-21T10:42:20.266Z,5.65
2022-11-21T10:45:08.953Z,6.35
2022-11-21T10:47:39.015Z,6.20
2022-11-21T10:50:10.010Z,2.40
2022-11-21T10:52:49.530Z,2.70
2022-11-21T10:55:18.425Z,20.52
2022-11-21T10:57:50.861Z,4.07
2022-11-21T11:00:23.757Z,2.67
2022-11-21T11:02:57.144Z,1.80
2022-11-21T11:05:26.504Z,1.95
2022-11-21T11:08:08.661Z,2.67
2022-11-21T11:10:45.276Z,2.38
2022-11-21T11:13:50.371Z,1.90
2022-11-21T11:16:22.056Z,1.60
2022-11-21T11:19:03.332Z,1.50
2022-11-21T11:21:47.102Z,1.80
2022-11-21T11:24:14.344Z,1.98
2022-11-21T11:26:48.549Z,2.72
2022-11-21T11:29:21.885Z,1.70
2022-11-21T11:31:55.254Z,2.88
2022-11-21T11:34:23.962Z,4.95
2022-11-21T11:37:00.214Z,5.53
2022-11-21T11:39:43.801Z,2.17
2022-11-21T11:42:54.707Z,13.85
2022-11-21T11:46:09.065Z,12.43
2022-11-21T11:49:03.767Z,4.53
2022-11-21T11:51:39.890Z,55.35
2022-11-21T11:54:20.919Z,7.38
2022-11-21T11:56:49.007Z,2.58
2022-11-21T11:59:18.940Z,2.95
2022-11-21T12:02:23.357Z,2.97
2022-11-21T12:05:05.112Z,10.88
2022-11-21T12:11:02.033Z,7.88
2022-11-21T12:13:31.596Z,5.00
2022-11-21T12:16:11.863Z,8.45
2022-11-21T12:18:54.921Z,1.98
2022-11-21T12:21:23.651Z,2.22
2022-11-21T12:23:55.159Z,2.70
2022-11-21T12:29:14.237Z,4.75
2022-11-21T12:32:12.455Z,7.50
2022-11-21T12:35:14.805Z,2.33
2022-11-21T12:37:47.864Z,4.38
2022-11-21T12:40:42.593Z,12.48
2022-11-21T12:43:31.487Z,18.27
2022-11-21T12:46:21.023Z,18.52
2022-11-21T12:49:25.924Z,6.20
2022-11-21T12:52:17.743Z,12.75
2022-11-21T12:55:01.765Z,4.15
2022-11-21T12:58:02.775Z,4.07
2022-11-21T13:00:40.612Z,10.70
2022-11-21T13:03:33.491Z,9.95
2022-11-21T13:06:04.416Z,4.28
2022-11-21T13:08:36.325Z,2.58
2022-11-21T13:14:27.473Z,12.60
2022-11-21T13:17:12.788Z,9.93
2022-11-21T13:19:58.057Z,14.85
2022-11-21T13:22:37.557Z,12.13
2022-11-21T13:25:40.828Z,3.33
2022-11-21T13:28:13.902Z,2.15
2022-11-21T13:31:01.372Z,3.63
2022-11-21T13:33:37.448Z,11.85
2022-11-21T13:36:10.778Z,5.28
2022-11-21T13:38:58.174Z,3.75
2022-11-21T13:41:55.753Z,9.50
2022-11-21T13:44:34.659Z,10.90
2022-11-21T13:47:05.025Z,9.20
2022-11-21T13:49:38.461Z,6.50
2022-11-21T13:52:20.317Z,5.90
2022-11-21T13:55:25.055Z,1.73
2022-11-21T13:58:10.521Z,2.58
2022-11-21T14:00:50.331Z,9.75
2022-11-21T14:03:29.670Z,5.30
2022-11-21T14:06:34.464Z,5.78
2022-11-21T14:09:37.039Z,2.10
2022-11-21T14:14:40.054Z,3.97
2022-11-21T14:17:27.495Z,6.03
2022-11-21T14:19:56.899Z,2.40
2022-11-21T14:22:45.159Z,5.57
2022-11-21T14:25:19.818Z,16.38
2022-11-21T14:27:50.375Z,7.88
2022-11-21T14:30:41.037Z,22.83
2022-11-21T14:33:45.049Z,12.93
2022-11-21T14:36:36.019Z,3.90
2022-11-21T14:42:11.300Z,8.60
2022-11-21T14:47:18.460Z,10.05
2022-11-21T14:49:52.236Z,2.60
2022-11-21T14:52:21.262Z,8.88
2022-11-21T14:55:27.965Z,1.60
2022-11-21T14:57:45.112Z,2.28
2022-11-21T15:00:43.252Z,2.10
2022-11-21T15:03:04.182Z,1.47
2022-11-21T15:06:00.727Z,2.10
2022-11-21T15:11:15.223Z,1.98
2022-11-21T15:14:14.331Z,1.58
2022-11-21T15:16:36.772Z,1.65
2022-11-21T15:19:10.293Z,2.03
2022-11-21T15:21:43.710Z,1.42
2022-11-21T15:24:42.717Z,1.90
2022-11-21T15:27:28.293Z,1.30
2022-11-21T15:30:07.922Z,1.25
2022-11-21T15:32:35.341Z,2.25
2022-11-21T15:35:32.165Z,1.42
2022-11-21T15:37:59.469Z,1.73
2022-11-21T15:40:27.921Z,1.38
2022-11-21T15:42:55.255Z,1.23
2022-11-21T15:45:26.782Z,1.45
2022-11-21T15:47:55.720Z,2.03
2022-11-21T15:50:25.069Z,2.30
2022-11-21T15:52:53.248Z,1.88
2022-11-21T15:55:25.340Z,1.60
2022-11-21T16:00:19.700Z,8.27
2022-11-21T16:02:47.448Z,2.90
2022-11-21T16:05:16.061Z,3.65
2022-11-21T16:07:43.311Z,1.98
2022-11-21T16:10:18.271Z,1.88
2022-11-21T16:12:50.423Z,1.67
2022-11-21T16:15:17.555Z,2.25
2022-11-21T16:17:47.304Z,1.40
2022-11-21T16:20:16.171Z,1.83
2022-11-21T16:22:47.835Z,2.25
2022-11-21T16:25:15.893Z,3.45
2022-11-21T16:27:43.101Z,4.80
2022-11-21T16:30:10.642Z,13.43
2022-11-21T16:32:37.778Z,8.43
2022-11-21T16:35:05.653Z,39.25
2022-11-21T16:37:33.845Z,6.00
2022-11-21T16:40:01.031Z,2.45
2022-11-21T16:42:28.115Z,1.92
2022-11-21T16:44:55.523Z,2.00
2022-11-21T16:47:22.625Z,2.30
2022-11-21T16:49:49.885Z,2.35
2022-11-21T16:52:18.274Z,3.45
2022-11-21T16:54:45.563Z,3.65
2022-11-21T16:57:12.752Z,4.15
2022-11-21T16:59:40.071Z,3.38
2022-11-21T17:02:09.759Z,3.83
2022-11-21T17:04:37.238Z,2.38
2022-11-21T17:07:04.470Z,2.50
2022-11-21T17:09:31.763Z,3.05
2022-11-21T17:11:59.190Z,2.20
2022-11-21T17:14:27.210Z,2.35
2022-11-21T17:16:54.840Z,1.88
2022-11-21T17:19:22.376Z,2.03
2022-11-21T17:21:49.513Z,2.22
2022-11-21T17:24:18.071Z,2.15
2022-11-21T17:26:45.159Z,1.88
2022-11-21T17:29:12.263Z,2.00
2022-11-21T17:31:41.847Z,1.77
2022-11-21T17:34:09.240Z,1.83
2022-11-21T17:36:36.724Z,2.20
2022-11-21T17:39:03.901Z,3.65
2022-11-21T17:41:31.339Z,3.47
2022-11-21T17:43:59.787Z,3.30
2022-11-21T17:46:28.357Z,2.58
2022-11-21T17:48:58.793Z,4.10
2022-11-21T17:51:33.456Z,3.55
2022-11-21T17:54:01.828Z,2.83
2022-11-21T17:56:31.076Z,2.90
2022-11-21T17:58:58.509Z,3.00
2022-11-21T18:01:27.224Z,2.53
2022-11-21T18:04:08.922Z,4.78
2022-11-21T18:06:40.798Z,5.75
2022-11-21T18:09:10.637Z,6.70
2022-11-21T18:11:40.195Z,6.60
2022-11-21T18:14:09.507Z,7.20
2022-11-21T18:16:37.286Z,6.40
2022-11-21T18:19:04.507Z,4.75
2022-11-21T18:21:33.054Z,4.57
2022-11-21T18:24:00.450Z,5.68
2022-11-21T18:26:32.832Z,6.85
2022-11-21T18:29:28.756Z,9.63
2022-11-21T18:31:49.427Z,4.88
2022-11-21T18:34:16.478Z,3.13
2022-11-21T18:36:43.671Z,1.95
2022-11-21T18:39:14.711Z,2.78
2022-11-21T18:41:42.647Z,4.10
2022-11-21T18:44:10.411Z,3.72
2022-11-21T18:46:40.977Z,12.10
2022-11-21T18:49:08.679Z,7.43
2022-11-21T18:51:36.732Z,9.38
2022-11-21T18:54:11.259Z,5.68
2022-11-21T18:56:40.256Z,8.02
2022-11-21T18:59:08.117Z,7.18
2022-11-21T19:01:36.825Z,4.72
2022-11-21T19:04:04.448Z,8.60
2022-11-21T19:06:32.793Z,8.07
2022-11-21T19:09:00.142Z,5.82
2022-11-21T19:11:29.840Z,3.70
2022-11-21T19:14:01.388Z,13.23
2022-11-21T19:16:34.290Z,14.90
2022-11-21T19:19:33.164Z,11.55
2022-11-21T19:21:55.506Z,8.52
2022-11-21T19:24:22.874Z,17.85
2022-11-21T19:26:51.149Z,23.33
2022-11-21T19:29:18.939Z,30.55
2022-11-21T19:31:46.281Z,31.08
2022-11-21T19:34:17.403Z,22.00
2022-11-21T19:36:45.834Z,24.20
2022-11-21T19:39:13.753Z,26.17
2022-11-21T19:41:41.503Z,35.13
2022-11-21T19:44:09.043Z,69.53
2022-11-21T19:46:38.771Z,45.85
2022-11-21T19:49:07.795Z,15.60
2022-11-21T19:51:37.477Z,15.48
2022-11-21T19:54:06.142Z,10.00
2022-11-21T19:56:33.724Z,9.20
2022-11-21T19:59:01.076Z,17.38
2022-11-21T20:01:30.937Z,20.48
2022-11-21T20:04:03.714Z,30.85
2022-11-21T20:06:41.637Z,11.73
2022-11-21T20:09:16.279Z,12.15
2022-11-21T20:11:46.303Z,23.75
2022-11-21T20:14:21.054Z,14.68
2022-11-21T20:16:51.197Z,13.32
2022-11-21T20:19:20.393Z,18.02
2022-11-21T20:21:48.073Z,15.73
2022-11-21T20:24:15.646Z,8.73
2022-11-21T20:26:43.366Z,18.70
2022-11-21T20:29:13.706Z,13.63
2022-11-21T20:31:41.491Z,9.38
2022-11-21T20:34:12.931Z,8.75
2022-11-21T20:36:41.407Z,8.00
2022-11-21T20:39:19.063Z,14.70
2022-11-21T20:41:47.263Z,16.35
2022-11-21T20:47:08.656Z,10.43
2022-11-21T20:49:35.996Z,16.30
2022-11-21T20:54:52.194Z,21.23
2022-11-21T20:57:19.534Z,11.90
2022-11-21T20:59:50.328Z,23.10
2022-11-21T21:02:17.821Z,10.48
2022-11-21T21:04:44.940Z,6.43
2022-11-21T21:07:13.416Z,4.38
2022-11-21T21:09:40.858Z,4.53
2022-11-21T21:12:08.265Z,10.75
2022-11-21T21:14:35.431Z,13.57
2022-11-21T21:17:02.798Z,7.53
2022-11-21T21:19:30.512Z,3.65
2022-11-21T21:21:58.014Z,3.78
2022-11-21T21:24:25.245Z,3.53
2022-11-21T21:26:52.671Z,2.08
2022-11-21T21:29:23.171Z,3.90
2022-11-21T21:31:52.093Z,2.20
2022-11-21T21:34:21.388Z,3.88
2022-11-21T21:36:49.401Z,4.90
2022-11-21T21:39:16.722Z,7.65
2022-11-21T21:41:46.411Z,7.75
2022-11-21T21:44:14.650Z,4.75
2022-11-21T21:46:42.049Z,3.60
2022-11-21T21:49:09.379Z,7.60
2022-11-21T21:51:40.220Z,4.97
2022-11-21T21:54:13.531Z,3.95
2022-11-21T21:56:40.826Z,8.02
2022-11-21T21:59:08.180Z,3.88
2022-11-21T22:01:35.439Z,4.82
2022-11-21T22:04:03.999Z,2.70
2022-11-21T22:06:34.229Z,5.82
2022-11-21T22:09:01.764Z,7.68
2022-11-21T22:11:31.630Z,7.40
2022-11-21T22:14:01.536Z,6.80
2022-11-21T22:16:29.356Z,5.45
2022-11-21T22:18:57.388Z,6.32
2022-11-21T22:21:30.188Z,4.93
2022-11-21T22:24:24.241Z,7.55
2022-11-21T22:26:47.327Z,3.80
2022-11-21T22:29:14.510Z,13.40
2022-11-21T22:31:41.772Z,12.23
2022-11-21T22:34:12.693Z,6.20
2022-11-21T22:36:40.184Z,8.00
2022-11-21T22:39:07.449Z,5.18
2022-11-21T22:41:34.789Z,4.95
2022-11-21T22:44:02.118Z,4.43
2022-11-21T22:46:30.336Z,4.72
2022-11-21T22:48:58.831Z,2.80
2022-11-21T22:51:29.800Z,2.30
2022-11-21T22:53:57.472Z,2.72
2022-11-21T22:56:26.658Z,2.63
2022-11-21T22:58:54.555Z,3.83
2022-11-21T23:01:24.169Z,2.55
2022-11-21T23:03:52.000Z,3.90
2022-11-21T23:06:24.794Z,2.30
2022-11-21T23:08:54.436Z,1.60
2022-11-21T23:11:36.416Z,1.80
2022-11-21T23:14:08.010Z,2.03
2022-11-21T23:16:37.873Z,2.20
2022-11-21T23:19:05.614Z,2.30
2022-11-21T23:21:35.554Z,2.28
2022-11-21T23:24:05.627Z,2.50
2022-11-21T23:26:36.251Z,4.00
2022-11-21T23:29:08.522Z,1.73
2022-11-21T23:31:36.601Z,2.00
2022-11-21T23:34:04.368Z,2.15
2022-11-21T23:36:32.833Z,1.27
2022-11-21T23:39:00.058Z,1.40
2022-11-21T23:41:27.388Z,2.10
2022-11-21T23:43:54.631Z,2.00
2022-11-21T23:46:22.133Z,1.60
2022-11-21T23:48:49.418Z,1.73
2022-11-21T23:51:21.537Z,2.22
2022-11-21T23:53:48.937Z,1.70
2022-11-21T23:56:16.085Z,1.10
2022-11-21T23:58:43.299Z,1.35
